sensor_id;sensor_type;location;lat;lon;timestamp;P1;durP1;ratioP1;P2;durP2;ratioP2
14736;SDS011;7459;53.590;10.062;2023-09-18T00:01:55;6.30;;;4.07;;
14736;SDS011;7459;53.590;10.062;2023-09-18T00:04:20;7.75;;;4.07;;
14736;SDS011;7459;53.590;10.062;2023-09-18T00:06:46;7.13;;;4.20;;
14736;SDS011;7459;53.590;10.062;2023-09-18T00:09:12;7.93;;;3.95;;
14736;SDS011;7459;53.590;10.062;2023-09-18T00:11:38;7.95;;;4.07;;
14736;SDS011;7459;53.590;10.062;2023-09-18T00:14:05;6.93;;;4.00;;
14736;SDS011;7459;53.590;10.062;2023-09-18T00:16:34;7.45;;;4.50;;
14736;SDS011;7459;53.590;10.062;2023-09-18T00:19:00;6.60;;;4.38;;
14736;SDS011;7459;53.590;10.062;2023-09-18T00:21:27;7.40;;;4.03;;
14736;SDS011;7459;53.590;10.062;2023-09-18T00:23:55;6.97;;;4.37;;
14736;SDS011;7459;53.590;10.062;2023-09-18T00:26:22;7.22;;;4.00;;
14736;SDS011;7459;53.590;10.062;2023-09-18T00:28:49;7.90;;;4.43;;
14736;SDS011;7459;53.590;10.062;2023-09-18T00:31:15;8.33;;;3.83;;
14736;SDS011;7459;53.590;10.062;2023-09-18T00:33:41;6.68;;;3.83;;
14736;SDS011;7459;53.590;10.062;2023-09-18T00:36:06;5.77;;;3.33;;
14736;SDS011;7459;53.590;10.062;2023-09-18T00:38:32;8.65;;;4.45;;
14736;SDS011;7459;53.590;10.062;2023-09-18T00:40:58;6.70;;;3.73;;
14736;SDS011;7459;53.590;10.062;2023-09-18T00:43:23;6.55;;;4.28;;
14736;SDS011;7459;53.590;10.062;2023-09-18T00:45:49;7.00;;;3.60;;
14736;SDS011;7459;53.590;10.062;2023-09-18T00:48:15;6.70;;;3.80;;
14736;SDS011;7459;53.590;10.062;2023-09-18T00:50:42;6.35;;;3.90;;
14736;SDS011;7459;53.590;10.062;2023-09-18T00:53:11;6.78;;;3.83;;
14736;SDS011;7459;53.590;10.062;2023-09-18T00:55:40;7.07;;;4.07;;
14736;SDS011;7459;53.590;10.062;2023-09-18T00:58:06;7.53;;;4.13;;
14736;SDS011;7459;53.590;10.062;2023-09-18T01:00:32;8.35;;;4.57;;
14736;SDS011;7459;53.590;10.062;2023-09-18T01:02:58;7.78;;;3.70;;
14736;SDS011;7459;53.590;10.062;2023-09-18T01:05:26;7.37;;;4.40;;
14736;SDS011;7459;53.590;10.062;2023-09-18T01:07:52;8.05;;;4.57;;
14736;SDS011;7459;53.590;10.062;2023-09-18T01:10:18;7.50;;;3.90;;
14736;SDS011;7459;53.590;10.062;2023-09-18T01:12:55;8.18;;;4.65;;
14736;SDS011;7459;53.590;10.062;2023-09-18T01:15:32;6.28;;;3.80;;
14736;SDS011;7459;53.590;10.062;2023-09-18T01:18:02;6.13;;;3.80;;
14736;SDS011;7459;53.590;10.062;2023-09-18T01:20:28;8.70;;;4.53;;
14736;SDS011;7459;53.590;10.062;2023-09-18T01:22:54;8.50;;;4.20;;
14736;SDS011;7459;53.590;10.062;2023-09-18T01:25:19;6.97;;;3.57;;
14736;SDS011;7459;53.590;10.062;2023-09-18T01:27:45;7.00;;;4.47;;
14736;SDS011;7459;53.590;10.062;2023-09-18T01:30:11;6.90;;;4.13;;
14736;SDS011;7459;53.590;10.062;2023-09-18T01:32:38;6.63;;;3.53;;
14736;SDS011;7459;53.590;10.062;2023-09-18T01:35:04;7.75;;;3.90;;
14736;SDS011;7459;53.590;10.062;2023-09-18T01:37:32;8.10;;;4.40;;
14736;SDS011;7459;53.590;10.062;2023-09-18T01:40:00;7.82;;;4.00;;
14736;SDS011;7459;53.590;10.062;2023-09-18T01:42:31;6.95;;;4.35;;
14736;SDS011;7459;53.590;10.062;2023-09-18T01:44:57;7.03;;;4.50;;
14736;SDS011;7459;53.590;10.062;2023-09-18T01:47:23;8.43;;;4.90;;
14736;SDS011;7459;53.590;10.062;2023-09-18T01:49:49;7.13;;;4.25;;
14736;SDS011;7459;53.590;10.062;2023-09-18T01:52:15;6.47;;;3.87;;
14736;SDS011;7459;53.590;10.062;2023-09-18T01:54:41;7.65;;;4.43;;
14736;SDS011;7459;53.590;10.062;2023-09-18T01:57:07;7.93;;;4.50;;
14736;SDS011;7459;53.590;10.062;2023-09-18T01:59:33;6.83;;;4.27;;
14736;SDS011;7459;53.590;10.062;2023-09-18T02:04:35;7.28;;;5.07;;
14736;SDS011;7459;53.590;10.062;2023-09-18T02:07:01;8.05;;;4.38;;
14736;SDS011;7459;53.590;10.062;2023-09-18T02:09:27;7.10;;;4.57;;
14736;SDS011;7459;53.590;10.062;2023-09-18T02:11:53;8.02;;;4.65;;
14736;SDS011;7459;53.590;10.062;2023-09-18T02:14:19;8.87;;;4.40;;
14736;SDS011;7459;53.590;10.062;2023-09-18T02:16:44;9.77;;;4.35;;
14736;SDS011;7459;53.590;10.062;2023-09-18T02:19:11;9.02;;;3.90;;
14736;SDS011;7459;53.590;10.062;2023-09-18T02:21:39;5.73;;;3.73;;
14736;SDS011;7459;53.590;10.062;2023-09-18T02:24:05;7.28;;;4.55;;
14736;SDS011;7459;53.590;10.062;2023-09-18T02:26:32;6.75;;;4.40;;
14736;SDS011;7459;53.590;10.062;2023-09-18T02:28:58;9.40;;;4.45;;
14736;SDS011;7459;53.590;10.062;2023-09-18T02:31:28;7.55;;;4.47;;
14736;SDS011;7459;53.590;10.062;2023-09-18T02:33:54;7.07;;;4.10;;
14736;SDS011;7459;53.590;10.062;2023-09-18T02:36:20;6.78;;;4.78;;
14736;SDS011;7459;53.590;10.062;2023-09-18T02:38:46;11.47;;;4.33;;
14736;SDS011;7459;53.590;10.062;2023-09-18T02:41:12;7.20;;;4.35;;
14736;SDS011;7459;53.590;10.062;2023-09-18T02:43:37;6.93;;;4.53;;
14736;SDS011;7459;53.590;10.062;2023-09-18T02:46:03;9.40;;;4.28;;
14736;SDS011;7459;53.590;10.062;2023-09-18T02:48:30;7.22;;;4.70;;
14736;SDS011;7459;53.590;10.062;2023-09-18T02:50:56;7.07;;;4.60;;
14736;SDS011;7459;53.590;10.062;2023-09-18T02:53:24;6.60;;;4.50;;
14736;SDS011;7459;53.590;10.062;2023-09-18T02:55:53;7.07;;;5.03;;
14736;SDS011;7459;53.590;10.062;2023-09-18T02:58:20;7.35;;;4.30;;
14736;SDS011;7459;53.590;10.062;2023-09-18T03:00:48;9.60;;;4.60;;
14736;SDS011;7459;53.590;10.062;2023-09-18T03:03:15;7.05;;;4.35;;
14736;SDS011;7459;53.590;10.062;2023-09-18T03:05:42;9.02;;;4.55;;
14736;SDS011;7459;53.590;10.062;2023-09-18T03:08:09;7.32;;;4.28;;
14736;SDS011;7459;53.590;10.062;2023-09-18T03:10:37;7.57;;;4.00;;
14736;SDS011;7459;53.590;10.062;2023-09-18T03:13:07;7.23;;;4.13;;
14736;SDS011;7459;53.590;10.062;2023-09-18T03:15:35;9.30;;;4.88;;
14736;SDS011;7459;53.590;10.062;2023-09-18T03:18:02;8.43;;;4.28;;
14736;SDS011;7459;53.590;10.062;2023-09-18T03:20:30;9.40;;;4.22;;
14736;SDS011;7459;53.590;10.062;2023-09-18T03:22:57;6.88;;;4.40;;
14736;SDS011;7459;53.590;10.062;2023-09-18T03:25:24;6.40;;;4.37;;
14736;SDS011;7459;53.590;10.062;2023-09-18T03:27:54;8.98;;;4.40;;
14736;SDS011;7459;53.590;10.062;2023-09-18T03:30:22;7.50;;;4.05;;
14736;SDS011;7459;53.590;10.062;2023-09-18T03:32:48;7.50;;;4.20;;
14736;SDS011;7459;53.590;10.062;2023-09-18T03:35:15;7.60;;;4.10;;
14736;SDS011;7459;53.590;10.062;2023-09-18T03:37:45;8.17;;;4.53;;
14736;SDS011;7459;53.590;10.062;2023-09-18T03:40:15;8.60;;;4.60;;
14736;SDS011;7459;53.590;10.062;2023-09-18T03:42:45;8.05;;;4.72;;
14736;SDS011;7459;53.590;10.062;2023-09-18T03:45:11;10.18;;;4.30;;
14736;SDS011;7459;53.590;10.062;2023-09-18T03:47:38;6.95;;;4.90;;
14736;SDS011;7459;53.590;10.062;2023-09-18T03:50:08;7.00;;;4.20;;
14736;SDS011;7459;53.590;10.062;2023-09-18T03:52:36;7.35;;;4.30;;
14736;SDS011;7459;53.590;10.062;2023-09-18T03:55:03;8.65;;;4.82;;
14736;SDS011;7459;53.590;10.062;2023-09-18T03:57:30;7.57;;;4.40;;
14736;SDS011;7459;53.590;10.062;2023-09-18T03:59:56;8.60;;;4.43;;
14736;SDS011;7459;53.590;10.062;2023-09-18T04:02:23;7.70;;;4.50;;
14736;SDS011;7459;53.590;10.062;2023-09-18T04:04:50;8.68;;;5.30;;
14736;SDS011;7459;53.590;10.062;2023-09-18T04:07:16;8.13;;;5.05;;
14736;SDS011;7459;53.590;10.062;2023-09-18T04:09:43;14.67;;;5.33;;
14736;SDS011;7459;53.590;10.062;2023-09-18T04:12:09;7.45;;;5.05;;
14736;SDS011;7459;53.590;10.062;2023-09-18T04:14:34;6.83;;;4.63;;
14736;SDS011;7459;53.590;10.062;2023-09-18T04:17:01;7.75;;;5.40;;
14736;SDS011;7459;53.590;10.062;2023-09-18T04:19:27;11.77;;;4.65;;
14736;SDS011;7459;53.590;10.062;2023-09-18T04:21:53;7.40;;;5.18;;
14736;SDS011;7459;53.590;10.062;2023-09-18T04:24:18;8.07;;;4.53;;
14736;SDS011;7459;53.590;10.062;2023-09-18T04:26:44;7.50;;;4.05;;
14736;SDS011;7459;53.590;10.062;2023-09-18T04:29:10;8.40;;;5.40;;
14736;SDS011;7459;53.590;10.062;2023-09-18T04:31:35;8.60;;;5.15;;
14736;SDS011;7459;53.590;10.062;2023-09-18T04:34:02;10.00;;;5.07;;
14736;SDS011;7459;53.590;10.062;2023-09-18T04:36:29;7.60;;;4.90;;
14736;SDS011;7459;53.590;10.062;2023-09-18T04:38:54;7.07;;;4.55;;
14736;SDS011;7459;53.590;10.062;2023-09-18T04:41:20;7.25;;;4.88;;
14736;SDS011;7459;53.590;10.062;2023-09-18T04:43:46;8.07;;;5.20;;
14736;SDS011;7459;53.590;10.062;2023-09-18T04:46:12;7.95;;;5.97;;
14736;SDS011;7459;53.590;10.062;2023-09-18T04:48:38;7.60;;;4.35;;
14736;SDS011;7459;53.590;10.062;2023-09-18T04:51:04;9.17;;;4.90;;
14736;SDS011;7459;53.590;10.062;2023-09-18T04:53:30;8.73;;;4.97;;
14736;SDS011;7459;53.590;10.062;2023-09-18T04:55:57;30.17;;;6.85;;
14736;SDS011;7459;53.590;10.062;2023-09-18T04:58:23;10.30;;;5.20;;
14736;SDS011;7459;53.590;10.062;2023-09-18T05:00:58;9.15;;;5.53;;
14736;SDS011;7459;53.590;10.062;2023-09-18T05:03:27;9.55;;;4.72;;
14736;SDS011;7459;53.590;10.062;2023-09-18T05:05:54;10.23;;;4.80;;
14736;SDS011;7459;53.590;10.062;2023-09-18T05:08:19;9.37;;;5.33;;
14736;SDS011;7459;53.590;10.062;2023-09-18T05:10:45;10.50;;;4.93;;
14736;SDS011;7459;53.590;10.062;2023-09-18T05:13:11;8.43;;;4.70;;
14736;SDS011;7459;53.590;10.062;2023-09-18T05:15:37;8.95;;;5.00;;
14736;SDS011;7459;53.590;10.062;2023-09-18T05:18:03;8.80;;;5.20;;
14736;SDS011;7459;53.590;10.062;2023-09-18T05:20:29;10.23;;;5.80;;
14736;SDS011;7459;53.590;10.062;2023-09-18T05:22:56;9.35;;;5.72;;
14736;SDS011;7459;53.590;10.062;2023-09-18T05:25:24;11.07;;;5.88;;
14736;SDS011;7459;53.590;10.062;2023-09-18T05:27:52;8.75;;;5.35;;
14736;SDS011;7459;53.590;10.062;2023-09-18T05:30:24;9.02;;;5.13;;
14736;SDS011;7459;53.590;10.062;2023-09-18T05:32:56;9.57;;;4.93;;
14736;SDS011;7459;53.590;10.062;2023-09-18T05:35:22;9.75;;;5.30;;
14736;SDS011;7459;53.590;10.062;2023-09-18T05:37:49;11.32;;;5.38;;
14736;SDS011;7459;53.590;10.062;2023-09-18T05:40:21;7.30;;;4.78;;
14736;SDS011;7459;53.590;10.062;2023-09-18T05:42:47;9.20;;;4.53;;
14736;SDS011;7459;53.590;10.062;2023-09-18T05:45:13;10.00;;;4.60;;
14736;SDS011;7459;53.590;10.062;2023-09-18T05:47:42;8.77;;;5.20;;
14736;SDS011;7459;53.590;10.062;2023-09-18T05:50:08;8.63;;;5.20;;
14736;SDS011;7459;53.590;10.062;2023-09-18T05:52:39;7.72;;;4.95;;
14736;SDS011;7459;53.590;10.062;2023-09-18T05:55:05;9.53;;;5.37;;
14736;SDS011;7459;53.590;10.062;2023-09-18T05:57:32;8.10;;;5.43;;
14736;SDS011;7459;53.590;10.062;2023-09-18T05:59:58;11.40;;;6.03;;
14736;SDS011;7459;53.590;10.062;2023-09-18T06:02:24;9.47;;;5.33;;
14736;SDS011;7459;53.590;10.062;2023-09-18T06:04:57;8.52;;;5.22;;
14736;SDS011;7459;53.590;10.062;2023-09-18T06:07:31;9.40;;;4.95;;
14736;SDS011;7459;53.590;10.062;2023-09-18T06:09:57;9.07;;;4.68;;
14736;SDS011;7459;53.590;10.062;2023-09-18T06:12:23;7.77;;;4.80;;
14736;SDS011;7459;53.590;10.062;2023-09-18T06:14:50;8.60;;;5.50;;
14736;SDS011;7459;53.590;10.062;2023-09-18T06:17:16;8.93;;;5.50;;
14736;SDS011;7459;53.590;10.062;2023-09-18T06:19:42;13.10;;;4.80;;
14736;SDS011;7459;53.590;10.062;2023-09-18T06:22:10;8.00;;;5.22;;
14736;SDS011;7459;53.590;10.062;2023-09-18T06:24:36;8.93;;;4.90;;
14736;SDS011;7459;53.590;10.062;2023-09-18T06:27:02;10.10;;;5.00;;
14736;SDS011;7459;53.590;10.062;2023-09-18T06:29:32;8.90;;;5.13;;
14736;SDS011;7459;53.590;10.062;2023-09-18T06:31:58;10.23;;;5.78;;
14736;SDS011;7459;53.590;10.062;2023-09-18T06:34:24;11.13;;;4.80;;
14736;SDS011;7459;53.590;10.062;2023-09-18T06:36:50;7.20;;;5.10;;
14736;SDS011;7459;53.590;10.062;2023-09-18T06:39:16;11.35;;;5.10;;
14736;SDS011;7459;53.590;10.062;2023-09-18T06:41:42;7.50;;;4.80;;
14736;SDS011;7459;53.590;10.062;2023-09-18T06:44:08;8.18;;;5.20;;
14736;SDS011;7459;53.590;10.062;2023-09-18T06:46:34;8.95;;;4.78;;
14736;SDS011;7459;53.590;10.062;2023-09-18T06:49:00;9.43;;;5.33;;
14736;SDS011;7459;53.590;10.062;2023-09-18T06:51:29;10.75;;;5.65;;
14736;SDS011;7459;53.590;10.062;2023-09-18T06:53:54;8.98;;;4.97;;
14736;SDS011;7459;53.590;10.062;2023-09-18T06:56:22;8.37;;;4.87;;
14736;SDS011;7459;53.590;10.062;2023-09-18T06:58:51;10.18;;;4.95;;
14736;SDS011;7459;53.590;10.062;2023-09-18T07:01:17;8.38;;;5.00;;
14736;SDS011;7459;53.590;10.062;2023-09-18T07:03:44;8.13;;;5.03;;
14736;SDS011;7459;53.590;10.062;2023-09-18T07:06:12;8.43;;;4.80;;
14736;SDS011;7459;53.590;10.062;2023-09-18T07:08:41;9.23;;;5.00;;
14736;SDS011;7459;53.590;10.062;2023-09-18T07:11:09;8.18;;;4.80;;
14736;SDS011;7459;53.590;10.062;2023-09-18T07:13:36;8.23;;;5.07;;
14736;SDS011;7459;53.590;10.062;2023-09-18T07:16:05;7.53;;;4.63;;
14736;SDS011;7459;53.590;10.062;2023-09-18T07:18:31;7.78;;;4.85;;
14736;SDS011;7459;53.590;10.062;2023-09-18T07:20:58;9.87;;;5.07;;
14736;SDS011;7459;53.590;10.062;2023-09-18T07:23:23;10.02;;;4.93;;
14736;SDS011;7459;53.590;10.062;2023-09-18T07:25:49;9.63;;;5.03;;
14736;SDS011;7459;53.590;10.062;2023-09-18T07:28:15;9.23;;;5.20;;
14736;SDS011;7459;53.590;10.062;2023-09-18T07:30:43;7.82;;;5.15;;
14736;SDS011;7459;53.590;10.062;2023-09-18T07:33:09;8.57;;;5.20;;
14736;SDS011;7459;53.590;10.062;2023-09-18T07:35:35;9.30;;;4.53;;
14736;SDS011;7459;53.590;10.062;2023-09-18T07:38:02;8.35;;;4.70;;
14736;SDS011;7459;53.590;10.062;2023-09-18T07:40:27;8.68;;;4.95;;
14736;SDS011;7459;53.590;10.062;2023-09-18T07:42:53;7.43;;;4.60;;
14736;SDS011;7459;53.590;10.062;2023-09-18T07:45:19;7.57;;;4.60;;
14736;SDS011;7459;53.590;10.062;2023-09-18T07:47:44;7.60;;;4.43;;
14736;SDS011;7459;53.590;10.062;2023-09-18T07:50:10;9.52;;;5.40;;
14736;SDS011;7459;53.590;10.062;2023-09-18T07:52:36;7.17;;;4.50;;
14736;SDS011;7459;53.590;10.062;2023-09-18T07:55:02;8.00;;;4.80;;
14736;SDS011;7459;53.590;10.062;2023-09-18T07:57:28;7.78;;;4.38;;
14736;SDS011;7459;53.590;10.062;2023-09-18T07:59:55;7.13;;;4.50;;
14736;SDS011;7459;53.590;10.062;2023-09-18T08:02:21;6.40;;;4.30;;
14736;SDS011;7459;53.590;10.062;2023-09-18T08:04:47;6.47;;;4.18;;
14736;SDS011;7459;53.590;10.062;2023-09-18T08:07:13;6.90;;;4.60;;
14736;SDS011;7459;53.590;10.062;2023-09-18T08:09:39;7.33;;;4.47;;
14736;SDS011;7459;53.590;10.062;2023-09-18T08:12:07;7.38;;;4.90;;
14736;SDS011;7459;53.590;10.062;2023-09-18T08:14:34;8.73;;;4.20;;
14736;SDS011;7459;53.590;10.062;2023-09-18T08:17:01;7.10;;;4.30;;
14736;SDS011;7459;53.590;10.062;2023-09-18T08:19:30;8.48;;;4.30;;
14736;SDS011;7459;53.590;10.062;2023-09-18T08:22:00;7.15;;;3.95;;
14736;SDS011;7459;53.590;10.062;2023-09-18T08:24:26;7.10;;;4.33;;
14736;SDS011;7459;53.590;10.062;2023-09-18T08:26:51;6.78;;;3.97;;
14736;SDS011;7459;53.590;10.062;2023-09-18T08:29:18;6.60;;;3.78;;
14736;SDS011;7459;53.590;10.062;2023-09-18T08:31:44;7.23;;;3.80;;
14736;SDS011;7459;53.590;10.062;2023-09-18T08:34:10;9.35;;;4.10;;
14736;SDS011;7459;53.590;10.062;2023-09-18T08:36:35;7.30;;;4.43;;
14736;SDS011;7459;53.590;10.062;2023-09-18T08:39:01;8.07;;;4.43;;
14736;SDS011;7459;53.590;10.062;2023-09-18T08:41:32;11.20;;;5.10;;
14736;SDS011;7459;53.590;10.062;2023-09-18T08:44:02;8.77;;;4.37;;
14736;SDS011;7459;53.590;10.062;2023-09-18T08:46:29;6.82;;;3.88;;
14736;SDS011;7459;53.590;10.062;2023-09-18T08:48:56;7.90;;;4.65;;
14736;SDS011;7459;53.590;10.062;2023-09-18T08:51:23;11.57;;;4.68;;
14736;SDS011;7459;53.590;10.062;2023-09-18T08:53:49;7.37;;;4.33;;
14736;SDS011;7459;53.590;10.062;2023-09-18T08:56:17;9.53;;;4.93;;
14736;SDS011;7459;53.590;10.062;2023-09-18T08:58:43;9.32;;;4.95;;
14736;SDS011;7459;53.590;10.062;2023-09-18T09:01:09;8.98;;;5.43;;
14736;SDS011;7459;53.590;10.062;2023-09-18T09:03:39;8.60;;;4.40;;
14736;SDS011;7459;53.590;10.062;2023-09-18T09:06:16;9.80;;;4.90;;
14736;SDS011;7459;53.590;10.062;2023-09-18T09:08:42;7.80;;;4.57;;
14736;SDS011;7459;53.590;10.062;2023-09-18T09:11:08;7.95;;;4.75;;
14736;SDS011;7459;53.590;10.062;2023-09-18T09:13:34;7.43;;;5.07;;
14736;SDS011;7459;53.590;10.062;2023-09-18T09:15:59;10.00;;;4.50;;
14736;SDS011;7459;53.590;10.062;2023-09-18T09:18:26;7.75;;;5.25;;
14736;SDS011;7459;53.590;10.062;2023-09-18T09:23:25;7.50;;;3.77;;
14736;SDS011;7459;53.590;10.062;2023-09-18T09:25:53;8.43;;;4.30;;
14736;SDS011;7459;53.590;10.062;2023-09-18T09:28:30;9.48;;;4.15;;
14736;SDS011;7459;53.590;10.062;2023-09-18T09:30:59;8.13;;;4.28;;
14736;SDS011;7459;53.590;10.062;2023-09-18T09:33:27;8.73;;;4.10;;
14736;SDS011;7459;53.590;10.062;2023-09-18T09:35:55;7.07;;;4.03;;
14736;SDS011;7459;53.590;10.062;2023-09-18T09:38:22;7.55;;;3.75;;
14736;SDS011;7459;53.590;10.062;2023-09-18T09:40:57;9.15;;;4.20;;
14736;SDS011;7459;53.590;10.062;2023-09-18T09:43:26;7.25;;;3.55;;
14736;SDS011;7459;53.590;10.062;2023-09-18T09:45:57;10.55;;;4.10;;
14736;SDS011;7459;53.590;10.062;2023-09-18T09:48:24;10.33;;;4.03;;
14736;SDS011;7459;53.590;10.062;2023-09-18T09:50:50;7.47;;;3.90;;
14736;SDS011;7459;53.590;10.062;2023-09-18T09:53:20;7.10;;;3.90;;
14736;SDS011;7459;53.590;10.062;2023-09-18T09:56:13;8.02;;;3.65;;
14736;SDS011;7459;53.590;10.062;2023-09-18T09:58:39;12.23;;;4.68;;
14736;SDS011;7459;53.590;10.062;2023-09-18T10:01:09;9.27;;;4.60;;
14736;SDS011;7459;53.590;10.062;2023-09-18T10:03:42;8.50;;;4.25;;
14736;SDS011;7459;53.590;10.062;2023-09-18T10:06:09;11.13;;;4.07;;
14736;SDS011;7459;53.590;10.062;2023-09-18T10:08:38;7.13;;;3.60;;
14736;SDS011;7459;53.590;10.062;2023-09-18T10:11:05;8.80;;;4.05;;
14736;SDS011;7459;53.590;10.062;2023-09-18T10:13:51;6.83;;;3.73;;
14736;SDS011;7459;53.590;10.062;2023-09-18T10:16:23;8.20;;;4.22;;
14736;SDS011;7459;53.590;10.062;2023-09-18T10:22:06;11.23;;;3.95;;
14736;SDS011;7459;53.590;10.062;2023-09-18T10:24:47;9.88;;;4.00;;
14736;SDS011;7459;53.590;10.062;2023-09-18T10:27:15;9.50;;;4.33;;
14736;SDS011;7459;53.590;10.062;2023-09-18T10:29:43;6.45;;;3.70;;
14736;SDS011;7459;53.590;10.062;2023-09-18T10:32:14;8.38;;;3.58;;
14736;SDS011;7459;53.590;10.062;2023-09-18T10:34:41;7.55;;;4.32;;
14736;SDS011;7459;53.590;10.062;2023-09-18T10:37:08;7.50;;;3.90;;
14736;SDS011;7459;53.590;10.062;2023-09-18T10:39:37;8.90;;;3.80;;
14736;SDS011;7459;53.590;10.062;2023-09-18T10:42:08;6.80;;;3.70;;
14736;SDS011;7459;53.590;10.062;2023-09-18T10:44:35;8.25;;;4.18;;
14736;SDS011;7459;53.590;10.062;2023-09-18T10:47:02;10.07;;;4.45;;
14736;SDS011;7459;53.590;10.062;2023-09-18T10:49:31;11.35;;;3.92;;
14736;SDS011;7459;53.590;10.062;2023-09-18T10:51:57;5.43;;;3.53;;
14736;SDS011;7459;53.590;10.062;2023-09-18T10:54:24;9.95;;;4.13;;
14736;SDS011;7459;53.590;10.062;2023-09-18T10:56:52;8.27;;;3.65;;
14736;SDS011;7459;53.590;10.062;2023-09-18T10:59:18;9.32;;;3.25;;
14736;SDS011;7459;53.590;10.062;2023-09-18T11:01:45;7.55;;;3.78;;
14736;SDS011;7459;53.590;10.062;2023-09-18T11:04:20;10.60;;;3.87;;
14736;SDS011;7459;53.590;10.062;2023-09-18T11:09:40;13.70;;;3.78;;
14736;SDS011;7459;53.590;10.062;2023-09-18T11:12:08;8.75;;;3.15;;
14736;SDS011;7459;53.590;10.062;2023-09-18T11:14:55;11.70;;;3.30;;
14736;SDS011;7459;53.590;10.062;2023-09-18T11:20:04;7.65;;;3.00;;
14736;SDS011;7459;53.590;10.062;2023-09-18T11:22:40;8.68;;;2.90;;
14736;SDS011;7459;53.590;10.062;2023-09-18T11:25:37;9.38;;;3.67;;
14736;SDS011;7459;53.590;10.062;2023-09-18T11:28:12;8.07;;;3.55;;
14736;SDS011;7459;53.590;10.062;2023-09-18T11:30:53;7.50;;;3.20;;
14736;SDS011;7459;53.590;10.062;2023-09-18T11:35:55;9.75;;;3.33;;
14736;SDS011;7459;53.590;10.062;2023-09-18T11:38:21;9.82;;;4.20;;
14736;SDS011;7459;53.590;10.062;2023-09-18T11:40:48;6.70;;;2.45;;
14736;SDS011;7459;53.590;10.062;2023-09-18T11:45:55;7.63;;;2.92;;
14736;SDS011;7459;53.590;10.062;2023-09-18T11:48:25;8.35;;;2.80;;
14736;SDS011;7459;53.590;10.062;2023-09-18T11:50:56;9.85;;;2.55;;
14736;SDS011;7459;53.590;10.062;2023-09-18T11:53:23;9.35;;;2.33;;
14736;SDS011;7459;53.590;10.062;2023-09-18T11:55:52;6.13;;;2.83;;
14736;SDS011;7459;53.590;10.062;2023-09-18T11:58:17;7.78;;;2.85;;
14736;SDS011;7459;53.590;10.062;2023-09-18T12:00:48;7.28;;;3.05;;
14736;SDS011;7459;53.590;10.062;2023-09-18T12:03:18;10.55;;;3.45;;
14736;SDS011;7459;53.590;10.062;2023-09-18T12:05:52;9.07;;;2.60;;
14736;SDS011;7459;53.590;10.062;2023-09-18T12:08:26;7.40;;;2.40;;
14736;SDS011;7459;53.590;10.062;2023-09-18T12:10:55;6.85;;;2.40;;
14736;SDS011;7459;53.590;10.062;2023-09-18T12:13:22;6.70;;;2.80;;
14736;SDS011;7459;53.590;10.062;2023-09-18T12:15:52;10.25;;;2.80;;
14736;SDS011;7459;53.590;10.062;2023-09-18T12:18:25;10.27;;;2.77;;
14736;SDS011;7459;53.590;10.062;2023-09-18T12:20:53;12.55;;;2.60;;
14736;SDS011;7459;53.590;10.062;2023-09-18T12:23:21;7.45;;;2.65;;
14736;SDS011;7459;53.590;10.062;2023-09-18T12:25:48;6.55;;;2.60;;
14736;SDS011;7459;53.590;10.062;2023-09-18T12:28:16;6.50;;;2.55;;
14736;SDS011;7459;53.590;10.062;2023-09-18T12:30:43;11.80;;;3.20;;
14736;SDS011;7459;53.590;10.062;2023-09-18T12:33:11;10.35;;;2.50;;
14736;SDS011;7459;53.590;10.062;2023-09-18T12:35:40;9.73;;;2.25;;
14736;SDS011;7459;53.590;10.062;2023-09-18T12:38:16;17.67;;;2.97;;
14736;SDS011;7459;53.590;10.062;2023-09-18T12:40:51;7.22;;;2.58;;
14736;SDS011;7459;53.590;10.062;2023-09-18T12:43:20;8.60;;;2.23;;
14736;SDS011;7459;53.590;10.062;2023-09-18T12:45:50;9.18;;;2.20;;
14736;SDS011;7459;53.590;10.062;2023-09-18T12:48:17;8.90;;;2.25;;
14736;SDS011;7459;53.590;10.062;2023-09-18T12:50:43;7.53;;;2.60;;
14736;SDS011;7459;53.590;10.062;2023-09-18T12:53:12;5.67;;;2.27;;
14736;SDS011;7459;53.590;10.062;2023-09-18T12:55:39;8.98;;;2.50;;
14736;SDS011;7459;53.590;10.062;2023-09-18T12:58:09;6.63;;;1.83;;
14736;SDS011;7459;53.590;10.062;2023-09-18T13:00:36;8.70;;;2.13;;
14736;SDS011;7459;53.590;10.062;2023-09-18T13:03:05;8.15;;;2.20;;
14736;SDS011;7459;53.590;10.062;2023-09-18T13:05:31;8.65;;;3.00;;
14736;SDS011;7459;53.590;10.062;2023-09-18T13:08:03;9.73;;;2.55;;
14736;SDS011;7459;53.590;10.062;2023-09-18T13:13:16;5.90;;;2.45;;
14736;SDS011;7459;53.590;10.062;2023-09-18T13:15:47;6.50;;;2.30;;
14736;SDS011;7459;53.590;10.062;2023-09-18T13:18:14;6.80;;;2.00;;
14736;SDS011;7459;53.590;10.062;2023-09-18T13:20:41;7.97;;;2.58;;
14736;SDS011;7459;53.590;10.062;2023-09-18T13:23:08;6.03;;;1.80;;
14736;SDS011;7459;53.590;10.062;2023-09-18T13:25:37;7.60;;;2.20;;
14736;SDS011;7459;53.590;10.062;2023-09-18T13:28:08;6.38;;;2.13;;
14736;SDS011;7459;53.590;10.062;2023-09-18T13:30:36;5.40;;;1.95;;
14736;SDS011;7459;53.590;10.062;2023-09-18T13:35:39;6.23;;;1.70;;
14736;SDS011;7459;53.590;10.062;2023-09-18T13:38:07;5.97;;;2.17;;
14736;SDS011;7459;53.590;10.062;2023-09-18T13:40:37;5.90;;;1.70;;
14736;SDS011;7459;53.590;10.062;2023-09-18T13:43:10;9.43;;;1.73;;
14736;SDS011;7459;53.590;10.062;2023-09-18T13:45:36;4.40;;;1.63;;
14736;SDS011;7459;53.590;10.062;2023-09-18T13:48:03;9.97;;;2.03;;
14736;SDS011;7459;53.590;10.062;2023-09-18T13:50:29;5.75;;;1.70;;
14736;SDS011;7459;53.590;10.062;2023-09-18T13:53:00;6.78;;;1.88;;
14736;SDS011;7459;53.590;10.062;2023-09-18T13:55:28;6.88;;;2.28;;
14736;SDS011;7459;53.590;10.062;2023-09-18T13:57:58;5.88;;;2.35;;
14736;SDS011;7459;53.590;10.062;2023-09-18T14:00:23;9.67;;;2.23;;
14736;SDS011;7459;53.590;10.062;2023-09-18T14:02:50;9.38;;;1.85;;
14736;SDS011;7459;53.590;10.062;2023-09-18T14:05:16;5.93;;;2.10;;
14736;SDS011;7459;53.590;10.062;2023-09-18T14:07:42;5.88;;;1.95;;
14736;SDS011;7459;53.590;10.062;2023-09-18T14:10:08;6.27;;;2.30;;
14736;SDS011;7459;53.590;10.062;2023-09-18T14:12:39;5.75;;;2.55;;
14736;SDS011;7459;53.590;10.062;2023-09-18T14:15:06;5.63;;;2.55;;
14736;SDS011;7459;53.590;10.062;2023-09-18T14:17:36;7.70;;;2.58;;
14736;SDS011;7459;53.590;10.062;2023-09-18T14:20:03;9.85;;;2.40;;
14736;SDS011;7459;53.590;10.062;2023-09-18T14:22:36;8.23;;;1.97;;
14736;SDS011;7459;53.590;10.062;2023-09-18T14:25:02;6.68;;;2.00;;
14736;SDS011;7459;53.590;10.062;2023-09-18T14:27:30;7.43;;;2.42;;
14736;SDS011;7459;53.590;10.062;2023-09-18T14:29:57;8.98;;;1.88;;
14736;SDS011;7459;53.590;10.062;2023-09-18T14:32:23;5.80;;;1.93;;
14736;SDS011;7459;53.590;10.062;2023-09-18T14:34:48;4.78;;;2.40;;
14736;SDS011;7459;53.590;10.062;2023-09-18T14:37:14;5.83;;;2.57;;
14736;SDS011;7459;53.590;10.062;2023-09-18T14:39:40;6.33;;;1.87;;
14736;SDS011;7459;53.590;10.062;2023-09-18T14:42:06;8.43;;;2.00;;
14736;SDS011;7459;53.590;10.062;2023-09-18T14:44:32;6.40;;;1.80;;
14736;SDS011;7459;53.590;10.062;2023-09-18T14:46:57;6.75;;;1.98;;
14736;SDS011;7459;53.590;10.062;2023-09-18T14:49:24;7.07;;;2.05;;
14736;SDS011;7459;53.590;10.062;2023-09-18T14:51:52;4.50;;;1.93;;
14736;SDS011;7459;53.590;10.062;2023-09-18T14:54:19;7.15;;;1.88;;
14736;SDS011;7459;53.590;10.062;2023-09-18T14:56:45;6.13;;;2.78;;
14736;SDS011;7459;53.590;10.062;2023-09-18T14:59:11;6.70;;;2.35;;
14736;SDS011;7459;53.590;10.062;2023-09-18T15:01:37;6.60;;;2.50;;
14736;SDS011;7459;53.590;10.062;2023-09-18T15:04:03;6.47;;;2.10;;
14736;SDS011;7459;53.590;10.062;2023-09-18T15:06:29;5.30;;;1.92;;
14736;SDS011;7459;53.590;10.062;2023-09-18T15:08:55;6.10;;;2.00;;
14736;SDS011;7459;53.590;10.062;2023-09-18T15:11:20;7.90;;;2.38;;
14736;SDS011;7459;53.590;10.062;2023-09-18T15:13:46;6.53;;;2.10;;